sensor_id;sensor_type;location;lat;lon;timestamp;pressure;altitude;pressure_sealevel;temperature;humidity
58245;BME280;44550;43.864;25.986;2022-10-17T00:03:42;102687.00;;;10.47;63.84
58245;BME280;44550;43.864;25.986;2022-10-17T00:07:44;102694.41;;;10.36;64.45
58245;BME280;44550;43.864;25.986;2022-10-17T00:11:43;102700.97;;;10.04;65.17
58245;BME280;44550;43.864;25.986;2022-10-17T00:15:43;102696.63;;;10.04;65.25
58245;BME280;44550;43.864;25.986;2022-10-17T00:19:42;102699.38;;;10.28;64.54
58245;BME280;44550;43.864;25.986;2022-10-17T00:23:44;102698.03;;;10.40;63.84
58245;BME280;44550;43.864;25.986;2022-10-17T00:27:44;102700.25;;;10.51;63.61
58245;BME280;44550;43.864;25.986;2022-10-17T00:31:43;102699.13;;;10.45;63.94
58245;BME280;44550;43.864;25.986;2022-10-17T00:35:43;102707.94;;;10.47;63.78
58245;BME280;44550;43.864;25.986;2022-10-17T00:39:45;102706.94;;;10.43;64.25
58245;BME280;44550;43.864;25.986;2022-10-17T00:43:52;102706.16;;;10.25;64.29
58245;BME280;44550;43.864;25.986;2022-10-17T00:47:54;102711.09;;;9.96;65.36
58245;BME280;44550;43.864;25.986;2022-10-17T00:51:58;102704.97;;;9.96;65.50
58245;BME280;44550;43.864;25.986;2022-10-17T00:56:02;102693.66;;;9.95;65.59
58245;BME280;44550;43.864;25.986;2022-10-17T01:00:05;102712.50;;;10.09;65.45
58245;BME280;44550;43.864;25.986;2022-10-17T01:04:05;102709.88;;;10.09;65.21
58245;BME280;44550;43.864;25.986;2022-10-17T01:08:04;102705.75;;;9.93;66.29
58245;BME280;44550;43.864;25.986;2022-10-17T01:12:12;102713.47;;;9.69;67.38
58245;BME280;44550;43.864;25.986;2022-10-17T01:16:18;102716.91;;;9.47;68.23
58245;BME280;44550;43.864;25.986;2022-10-17T01:20:42;102714.97;;;9.24;68.60
58245;BME280;44550;43.864;25.986;2022-10-17T01:24:59;102721.53;;;9.14;68.85
58245;BME280;44550;43.864;25.986;2022-10-17T01:29:18;102719.53;;;9.08;69.34
58245;BME280;44550;43.864;25.986;2022-10-17T01:33:52;102730.88;;;9.09;69.47
58245;BME280;44550;43.864;25.986;2022-10-17T01:38:03;102718.78;;;9.11;69.98
58245;BME280;44550;43.864;25.986;2022-10-17T01:42:11;102730.88;;;9.09;69.89
58245;BME280;44550;43.864;25.986;2022-10-17T01:46:17;102732.44;;;9.05;70.12
58245;BME280;44550;43.864;25.986;2022-10-17T01:50:27;102734.91;;;9.02;70.55
58245;BME280;44550;43.864;25.986;2022-10-17T01:54:32;102734.44;;;8.91;71.05
58245;BME280;44550;43.864;25.986;2022-10-17T01:58:40;102729.06;;;8.69;71.06
58245;BME280;44550;43.864;25.986;2022-10-17T02:02:42;102744.28;;;8.60;71.55
58245;BME280;44550;43.864;25.986;2022-10-17T02:06:47;102745.16;;;8.60;71.97
58245;BME280;44550;43.864;25.986;2022-10-17T02:10:50;102725.78;;;8.37;72.19
58245;BME280;44550;43.864;25.986;2022-10-17T02:15:03;102745.38;;;8.29;72.48
58245;BME280;44550;43.864;25.986;2022-10-17T02:19:22;102745.72;;;8.01;72.60
58245;BME280;44550;43.864;25.986;2022-10-17T02:23:34;102752.28;;;7.93;72.76
58245;BME280;44550;43.864;25.986;2022-10-17T02:27:43;102763.13;;;7.84;73.71
58245;BME280;44550;43.864;25.986;2022-10-17T02:31:46;102759.16;;;7.74;73.91
58245;BME280;44550;43.864;25.986;2022-10-17T02:35:52;102758.53;;;7.79;73.76
58245;BME280;44550;43.864;25.986;2022-10-17T02:39:56;102771.50;;;7.61;73.83
58245;BME280;44550;43.864;25.986;2022-10-17T02:43:57;102779.22;;;7.59;73.79
58245;BME280;44550;43.864;25.986;2022-10-17T02:48:02;102777.13;;;7.68;73.24
58245;BME280;44550;43.864;25.986;2022-10-17T02:52:08;102761.75;;;7.57;73.85
58245;BME280;44550;43.864;25.986;2022-10-17T02:56:16;102773.06;;;7.41;74.67
58245;BME280;44550;43.864;25.986;2022-10-17T03:00:17;102786.78;;;7.54;74.19
58245;BME280;44550;43.864;25.986;2022-10-17T03:04:17;102786.63;;;7.51;74.05
58245;BME280;44550;43.864;25.986;2022-10-17T03:08:17;102789.34;;;7.37;74.34
58245;BME280;44550;43.864;25.986;2022-10-17T03:12:18;102785.19;;;7.40;74.05
58245;BME280;44550;43.864;25.986;2022-10-17T03:16:17;102788.19;;;7.48;73.85
58245;BME280;44550;43.864;25.986;2022-10-17T03:20:17;102789.72;;;7.44;73.88
58245;BME280;44550;43.864;25.986;2022-10-17T03:24:16;102796.31;;;7.38;74.14
58245;BME280;44550;43.864;25.986;2022-10-17T03:28:17;102797.63;;;7.29;74.20
58245;BME280;44550;43.864;25.986;2022-10-17T03:32:17;102796.00;;;7.32;73.95
58245;BME280;44550;43.864;25.986;2022-10-17T03:36:18;102801.94;;;7.13;74.51
58245;BME280;44550;43.864;25.986;2022-10-17T03:40:19;102798.22;;;6.76;75.00
58245;BME280;44550;43.864;25.986;2022-10-17T03:44:21;102797.13;;;6.56;76.07
58245;BME280;44550;43.864;25.986;2022-10-17T03:48:20;102800.34;;;6.52;76.58
58245;BME280;44550;43.864;25.986;2022-10-17T03:52:20;102809.50;;;6.46;77.01
58245;BME280;44550;43.864;25.986;2022-10-17T03:56:20;102806.63;;;6.41;76.71
58245;BME280;44550;43.864;25.986;2022-10-17T04:00:23;102816.38;;;6.60;76.26
58245;BME280;44550;43.864;25.986;2022-10-17T04:04:23;102816.25;;;6.73;75.45
58245;BME280;44550;43.864;25.986;2022-10-17T04:08:22;102816.78;;;6.68;75.26
58245;BME280;44550;43.864;25.986;2022-10-17T04:12:24;102831.50;;;6.67;75.12
58245;BME280;44550;43.864;25.986;2022-10-17T04:16:26;102823.19;;;6.58;75.43
58245;BME280;44550;43.864;25.986;2022-10-17T04:20:26;102837.59;;;6.68;75.44
58245;BME280;44550;43.864;25.986;2022-10-17T04:24:26;102839.88;;;6.93;74.87
58245;BME280;44550;43.864;25.986;2022-10-17T04:28:27;102840.66;;;6.92;74.70
58245;BME280;44550;43.864;25.986;2022-10-17T04:32:29;102843.59;;;6.98;74.80
58245;BME280;44550;43.864;25.986;2022-10-17T04:36:30;102845.09;;;7.09;74.53
58245;BME280;44550;43.864;25.986;2022-10-17T04:40:31;102847.94;;;7.14;74.33
58245;BME280;44550;43.864;25.986;2022-10-17T04:44:32;102829.81;;;6.99;74.67
58245;BME280;44550;43.864;25.986;2022-10-17T04:48:34;102811.81;;;6.87;74.86
58245;BME280;44550;43.864;25.986;2022-10-17T04:52:35;102853.31;;;7.17;74.63
58245;BME280;44550;43.864;25.986;2022-10-17T04:56:37;102820.50;;;6.88;75.03
58245;BME280;44550;43.864;25.986;2022-10-17T05:00:37;102793.78;;;6.59;75.41
58245;BME280;44550;43.864;25.986;2022-10-17T05:04:40;102844.19;;;6.77;76.14
58245;BME280;44550;43.864;25.986;2022-10-17T05:08:40;102869.84;;;6.86;76.55
58245;BME280;44550;43.864;25.986;2022-10-17T05:12:40;102869.25;;;6.92;76.64
58245;BME280;44550;43.864;25.986;2022-10-17T05:16:41;102872.31;;;6.99;76.39
58245;BME280;44550;43.864;25.986;2022-10-17T05:20:44;102885.50;;;7.02;76.24
58245;BME280;44550;43.864;25.986;2022-10-17T05:24:44;102885.22;;;6.98;76.56
58245;BME280;44550;43.864;25.986;2022-10-17T05:28:44;102890.88;;;6.91;76.85
58245;BME280;44550;43.864;25.986;2022-10-17T05:32:45;102886.56;;;6.91;77.18
58245;BME280;44550;43.864;25.986;2022-10-17T05:36:47;102867.47;;;6.91;75.87
58245;BME280;44550;43.864;25.986;2022-10-17T05:40:48;102895.97;;;7.35;75.06
58245;BME280;44550;43.864;25.986;2022-10-17T05:44:48;102872.28;;;7.47;74.59
58245;BME280;44550;43.864;25.986;2022-10-17T05:48:48;102912.00;;;8.08;74.14
58245;BME280;44550;43.864;25.986;2022-10-17T05:52:54;102910.78;;;8.52;72.72
58245;BME280;44550;43.864;25.986;2022-10-17T05:56:55;102910.50;;;9.00;72.21
58245;BME280;44550;43.864;25.986;2022-10-17T06:00:57;102903.25;;;9.49;71.69
58245;BME280;44550;43.864;25.986;2022-10-17T06:04:57;102924.06;;;10.25;70.80
58245;BME280;44550;43.864;25.986;2022-10-17T06:09:01;102928.72;;;10.94;69.81
58245;BME280;44550;43.864;25.986;2022-10-17T06:13:02;102912.63;;;11.52;67.12
58245;BME280;44550;43.864;25.986;2022-10-17T06:17:02;102930.88;;;12.19;65.76
58245;BME280;44550;43.864;25.986;2022-10-17T06:21:03;102932.50;;;12.41;64.38
58245;BME280;44550;43.864;25.986;2022-10-17T06:25:07;102934.34;;;12.69;63.08
58245;BME280;44550;43.864;25.986;2022-10-17T06:29:06;102902.59;;;12.62;63.03
58245;BME280;44550;43.864;25.986;2022-10-17T06:33:07;102944.78;;;13.51;60.77
58245;BME280;44550;43.864;25.986;2022-10-17T06:37:09;102921.00;;;13.76;58.75
58245;BME280;44550;43.864;25.986;2022-10-17T06:41:13;102929.75;;;14.72;57.26
58245;BME280;44550;43.864;25.986;2022-10-17T06:45:21;102938.59;;;15.12;55.72
58245;BME280;44550;43.864;25.986;2022-10-17T06:49:20;102952.59;;;15.09;55.58
58245;BME280;44550;43.864;25.986;2022-10-17T06:53:23;102930.03;;;15.20;54.96
58245;BME280;44550;43.864;25.986;2022-10-17T06:57:29;102937.00;;;15.18;54.67
58245;BME280;44550;43.864;25.986;2022-10-17T07:01:30;102903.66;;;15.20;54.96
58245;BME280;44550;43.864;25.986;2022-10-17T07:05:34;102957.44;;;15.66;54.08
58245;BME280;44550;43.864;25.986;2022-10-17T07:09:34;102932.47;;;15.13;55.99
58245;BME280;44550;43.864;25.986;2022-10-17T07:13:36;102965.97;;;15.18;57.12
58245;BME280;44550;43.864;25.986;2022-10-17T07:17:36;102957.41;;;15.27;56.64
58245;BME280;44550;43.864;25.986;2022-10-17T07:21:36;102936.28;;;15.25;55.82
58245;BME280;44550;43.864;25.986;2022-10-17T07:25:36;102962.41;;;15.54;55.35
58245;BME280;44550;43.864;25.986;2022-10-17T07:29:39;102970.72;;;15.71;54.30
58245;BME280;44550;43.864;25.986;2022-10-17T07:33:40;102962.41;;;15.54;54.53
58245;BME280;44550;43.864;25.986;2022-10-17T07:37:40;102967.53;;;15.48;53.68
58245;BME280;44550;43.864;25.986;2022-10-17T07:41:40;102968.41;;;15.47;54.37
58245;BME280;44550;43.864;25.986;2022-10-17T07:45:42;102967.53;;;15.48;53.43
58245;BME280;44550;43.864;25.986;2022-10-17T07:49:41;102970.53;;;15.63;51.93
58245;BME280;44550;43.864;25.986;2022-10-17T07:53:42;102972.31;;;16.07;50.45
58245;BME280;44550;43.864;25.986;2022-10-17T07:57:47;102961.84;;;16.11;49.04
58245;BME280;44550;43.864;25.986;2022-10-17T08:01:54;102972.84;;;16.33;49.74
58245;BME280;44550;43.864;25.986;2022-10-17T08:05:56;102951.50;;;15.78;51.45
58245;BME280;44550;43.864;25.986;2022-10-17T08:09:56;102944.88;;;15.98;51.57
58245;BME280;44550;43.864;25.986;2022-10-17T08:13:56;102959.72;;;16.39;50.96
58245;BME280;44550;43.864;25.986;2022-10-17T08:17:58;102960.34;;;16.24;50.49
58245;BME280;44550;43.864;25.986;2022-10-17T08:21:58;102952.72;;;16.41;49.07
58245;BME280;44550;43.864;25.986;2022-10-17T08:25:58;102943.84;;;16.36;46.92
58245;BME280;44550;43.864;25.986;2022-10-17T08:29:59;102938.81;;;16.50;47.81
58245;BME280;44550;43.864;25.986;2022-10-17T08:34:01;102929.66;;;16.29;46.36
58245;BME280;44550;43.864;25.986;2022-10-17T08:38:01;102948.47;;;16.49;46.04
58245;BME280;44550;43.864;25.986;2022-10-17T08:42:12;102912.56;;;16.10;45.44
58245;BME280;44550;43.864;25.986;2022-10-17T08:46:16;102938.81;;;16.50;44.36
58245;BME280;44550;43.864;25.986;2022-10-17T08:50:25;102969.03;;;16.65;41.77
58245;BME280;44550;43.864;25.986;2022-10-17T08:54:35;102951.47;;;16.71;44.40
58245;BME280;44550;43.864;25.986;2022-10-17T08:58:37;102943.19;;;16.49;42.19
58245;BME280;44550;43.864;25.986;2022-10-17T09:02:43;102949.03;;;16.81;41.08
58245;BME280;44550;43.864;25.986;2022-10-17T09:06:56;102963.47;;;17.02;41.98
58245;BME280;44550;43.864;25.986;2022-10-17T09:11:06;102944.13;;;17.04;40.00
58245;BME280;44550;43.864;25.986;2022-10-17T09:15:26;102951.50;;;17.25;38.31
58245;BME280;44550;43.864;25.986;2022-10-17T09:19:36;102964.97;;;17.42;37.13
58245;BME280;44550;43.864;25.986;2022-10-17T09:23:42;102964.84;;;17.34;35.15
58245;BME280;44550;43.864;25.986;2022-10-17T09:28:03;102954.25;;;17.33;35.35
58245;BME280;44550;43.864;25.986;2022-10-17T09:32:11;102962.47;;;17.54;33.35
58245;BME280;44550;43.864;25.986;2022-10-17T09:36:19;102932.69;;;17.69;34.29
58245;BME280;44550;43.864;25.986;2022-10-17T09:40:24;102951.63;;;18.01;35.14
58245;BME280;44550;43.864;25.986;2022-10-17T09:44:30;102927.78;;;18.00;33.65
58245;BME280;44550;43.864;25.986;2022-10-17T09:48:33;102939.50;;;18.22;34.85
58245;BME280;44550;43.864;25.986;2022-10-17T09:52:39;102938.78;;;18.38;35.44
58245;BME280;44550;43.864;25.986;2022-10-17T09:57:01;102939.56;;;18.29;36.15
58245;BME280;44550;43.864;25.986;2022-10-17T10:01:15;102917.13;;;17.92;36.17
58245;BME280;44550;43.864;25.986;2022-10-17T10:05:20;102936.06;;;18.34;36.14
58245;BME280;44550;43.864;25.986;2022-10-17T10:09:22;102927.28;;;18.39;36.33
58245;BME280;44550;43.864;25.986;2022-10-17T10:13:26;102926.75;;;18.75;35.30
58245;BME280;44550;43.864;25.986;2022-10-17T10:17:36;102913.59;;;18.88;34.44
58245;BME280;44550;43.864;25.986;2022-10-17T10:21:53;102929.47;;;18.85;33.36
58245;BME280;44550;43.864;25.986;2022-10-17T10:25:55;102917.13;;;18.88;34.36
58245;BME280;44550;43.864;25.986;2022-10-17T10:29:57;102913.69;;;19.01;32.36
58245;BME280;44550;43.864;25.986;2022-10-17T10:34:00;102879.31;;;19.23;34.55
58245;BME280;44550;43.864;25.986;2022-10-17T10:38:02;102862.41;;;18.98;34.37
58245;BME280;44550;43.864;25.986;2022-10-17T10:42:16;102904.09;;;19.22;34.34
58245;BME280;44550;43.864;25.986;2022-10-17T10:46:20;102894.19;;;18.96;34.95
58245;BME280;44550;43.864;25.986;2022-10-17T10:50:28;102890.69;;;18.99;35.48
58245;BME280;44550;43.864;25.986;2022-10-17T10:54:35;102883.59;;;18.95;35.67
58245;BME280;44550;43.864;25.986;2022-10-17T10:58:41;102830.38;;;18.64;35.39
58245;BME280;44550;43.864;25.986;2022-10-17T11:02:53;102877.41;;;18.94;35.12
58245;BME280;44550;43.864;25.986;2022-10-17T11:07:03;102829.59;;;18.81;33.50
58245;BME280;44550;43.864;25.986;2022-10-17T11:11:12;102843.84;;;18.99;33.93
58245;BME280;44550;43.864;25.986;2022-10-17T11:15:20;102860.56;;;18.85;33.54
58245;BME280;44550;43.864;25.986;2022-10-17T11:19:32;102866.75;;;18.85;34.33
58245;BME280;44550;43.864;25.986;2022-10-17T11:23:39;102857.28;;;19.32;33.91
58245;BME280;44550;43.864;25.986;2022-10-17T11:27:39;102801.56;;;19.33;33.71
58245;BME280;44550;43.864;25.986;2022-10-17T11:31:43;102848.59;;;19.71;31.97
58245;BME280;44550;43.864;25.986;2022-10-17T11:35:48;102823.81;;;19.70;32.60
58245;BME280;44550;43.864;25.986;2022-10-17T11:39:53;102834.50;;;20.07;32.86
58245;BME280;44550;43.864;25.986;2022-10-17T11:43:56;102824.75;;;20.14;32.50
58245;BME280;44550;43.864;25.986;2022-10-17T11:48:00;102796.41;;;20.13;32.58
58245;BME280;44550;43.864;25.986;2022-10-17T11:52:22;102825.63;;;20.40;31.89
58245;BME280;44550;43.864;25.986;2022-10-17T11:56:52;102811.47;;;20.28;32.93
58245;BME280;44550;43.864;25.986;2022-10-17T12:00:58;102817.69;;;20.30;32.91
58245;BME280;44550;43.864;25.986;2022-10-17T12:05:02;102813.22;;;20.32;32.80
58245;BME280;44550;43.864;25.986;2022-10-17T12:09:12;102817.66;;;20.42;32.77
58245;BME280;44550;43.864;25.986;2022-10-17T12:13:46;102816.78;;;20.43;32.85
58245;BME280;44550;43.864;25.986;2022-10-17T12:17:53;102814.13;;;20.63;32.90
58245;BME280;44550;43.864;25.986;2022-10-17T12:21:56;102805.25;;;20.65;32.29
58245;BME280;44550;43.864;25.986;2022-10-17T12:26:00;102808.75;;;20.84;32.71
58245;BME280;44550;43.864;25.986;2022-10-17T12:30:05;102801.59;;;21.00;33.04
58245;BME280;44550;43.864;25.986;2022-10-17T12:34:14;102805.13;;;21.07;33.14
58245;BME280;44550;43.864;25.986;2022-10-17T12:38:25;102796.34;;;20.90;33.56
58245;BME280;44550;43.864;25.986;2022-10-17T12:42:46;102802.50;;;20.99;33.46
58245;BME280;44550;43.864;25.986;2022-10-17T12:46:48;102785.59;;;21.11;33.70
58245;BME280;44550;43.864;25.986;2022-10-17T12:51:02;102761.56;;;21.37;33.41
58245;BME280;44550;43.864;25.986;2022-10-17T12:55:24;102787.97;;;21.69;33.19
58245;BME280;44550;43.864;25.986;2022-10-17T13:03:30;102748.31;;;21.19;34.47
58245;BME280;44550;43.864;25.986;2022-10-17T13:07:32;102773.97;;;21.37;34.65
58245;BME280;44550;43.864;25.986;2022-10-17T13:11:35;102734.22;;;21.06;34.97
58245;BME280;44550;43.864;25.986;2022-10-17T13:15:38;102778.41;;;21.33;35.47
58245;BME280;44550;43.864;25.986;2022-10-17T13:19:42;102767.88;;;21.10;35.43
58245;BME280;44550;43.864;25.986;2022-10-17T13:23:42;102786.38;;;21.31;36.19
58245;BME280;44550;43.864;25.986;2022-10-17T13:27:44;102789.97;;;21.21;36.72
58245;BME280;44550;43.864;25.986;2022-10-17T13:31:50;102778.41;;;21.28;35.86
58245;BME280;44550;43.864;25.986;2022-10-17T13:35:50;102787.28;;;21.37;34.98
58245;BME280;44550;43.864;25.986;2022-10-17T13:39:58;102782.81;;;21.43;35.15
58245;BME280;44550;43.864;25.986;2022-10-17T13:44:12;102786.41;;;21.39;34.66
58245;BME280;44550;43.864;25.986;2022-10-17T13:48:19;102749.16;;;21.25;34.12
58245;BME280;44550;43.864;25.986;2022-10-17T13:52:21;102788.97;;;21.50;34.76
58245;BME280;44550;43.864;25.986;2022-10-17T13:56:23;102794.28;;;21.51;34.92
58245;BME280;44550;43.864;25.986;2022-10-17T14:04:27;102786.47;;;21.19;34.83
58245;BME280;44550;43.864;25.986;2022-10-17T14:09:20;102759.91;;;21.04;34.56
58245;BME280;44550;43.864;25.986;2022-10-17T14:13:27;102794.38;;;21.33;34.20
58245;BME280;44550;43.864;25.986;2022-10-17T14:17:30;102750.94;;;21.29;33.97
58245;BME280;44550;43.864;25.986;2022-10-17T14:21:32;102787.25;;;21.33;33.92
58245;BME280;44550;43.864;25.986;2022-10-17T14:25:41;102791.78;;;21.19;34.30
58245;BME280;44550;43.864;25.986;2022-10-17T14:29:50;102791.88;;;20.99;34.71
58245;BME280;44550;43.864;25.986;2022-10-17T14:33:51;102757.41;;;20.61;35.34
58245;BME280;44550;43.864;25.986;2022-10-17T14:37:57;102790.22;;;20.52;35.43
58245;BME280;44550;43.864;25.986;2022-10-17T14:41:57;102788.44;;;20.44;36.15
58245;BME280;44550;43.864;25.986;2022-10-17T14:46:01;102792.84;;;20.38;35.41
58245;BME280;44550;43.864;25.986;2022-10-17T14:50:04;102776.94;;;20.14;34.87
58245;BME280;44550;43.864;25.986;2022-10-17T14:54:18;102787.56;;;20.02;35.64
58245;BME280;44550;43.864;25.986;2022-10-17T14:58:24;102771.59;;;19.73;36.27
58245;BME280;44550;43.864;25.986;2022-10-17T15:02:26;102810.56;;;19.87;38.01
58245;BME280;44550;43.864;25.986;2022-10-17T15:06:29;102806.16;;;20.02;38.84
58245;BME280;44550;43.864;25.986;2022-10-17T15:10:35;102798.19;;;19.92;38.90
58245;BME280;44550;43.864;25.986;2022-10-17T15:14:39;102758.22;;;19.33;40.30
58245;BME280;44550;43.864;25.986;2022-10-17T15:18:39;102817.44;;;19.21;41.33
58245;BME280;44550;43.864;25.986;2022-10-17T15:22:39;102819.13;;;19.04;42.25
58245;BME280;44550;43.864;25.986;2022-10-17T15:26:41;102826.09;;;18.86;41.53
58245;BME280;44550;43.864;25.986;2022-10-17T15:30:41;102828.56;;;18.63;42.50
58245;BME280;44550;43.864;25.986;2022-10-17T15:34:41;102824.13;;;18.58;42.94
58245;BME280;44550;43.864;25.986;2022-10-17T15:38:41;102821.34;;;18.38;42.53
58245;BME280;44550;43.864;25.986;2022-10-17T15:42:43;102821.03;;;18.04;43.26
58245;BME280;44550;43.864;25.986;2022-10-17T15:46:42;102819.81;;;17.73;44.08
58245;BME280;44550;43.864;25.986;2022-10-17T15:50:42;102829.28;;;17.49;45.06
58245;BME280;44550;43.864;25.986;2022-10-17T15:54:41;102836.13;;;17.33;45.86
58245;BME280;44550;43.864;25.986;2022-10-17T15:58:43;102837.50;;;17.04;46.53
58245;BME280;44550;43.864;25.986;2022-10-17T16:02:44;102832.78;;;16.80;47.57
58245;BME280;44550;43.864;25.986;2022-10-17T16:06:43;102851.03;;;16.67;48.04
58245;BME280;44550;43.864;25.986;2022-10-17T16:10:43;102852.66;;;16.58;48.30
58245;BME280;44550;43.864;25.986;2022-10-17T16:14:45;102857.78;;;16.49;48.89
58245;BME280;44550;43.864;25.986;2022-10-17T16:18:44;102857.72;;;16.44;49.24
58245;BME280;44550;43.864;25.986;2022-10-17T16:22:45;102869.81;;;16.31;50.15
58245;BME280;44550;43.864;25.986;2022-10-17T16:26:45;102865.13;;;16.13;51.05
58245;BME280;44550;43.864;25.986;2022-10-17T16:30:46;102848.63;;;15.77;51.84
58245;BME280;44550;43.864;25.986;2022-10-17T16:34:46;102852.69;;;15.62;52.47
58245;BME280;44550;43.864;25.986;2022-10-17T16:38:46;102874.72;;;15.66;52.74
58245;BME280;44550;43.864;25.986;2022-10-17T16:42:46;102868.34;;;15.55;53.52
58245;BME280;44550;43.864;25.986;2022-10-17T16:46:47;102872.56;;;15.45;53.90
58245;BME280;44550;43.864;25.986;2022-10-17T16:50:47;102869.94;;;15.06;54.61
58245;BME280;44550;43.864;25.986;2022-10-17T16:54:46;102881.75;;;14.84;55.38
58245;BME280;44550;43.864;25.986;2022-10-17T16:58:46;102857.69;;;14.68;55.63
58245;BME280;44550;43.864;25.986;2022-10-17T17:02:48;102885.44;;;14.55;56.94
58245;BME280;44550;43.864;25.986;2022-10-17T17:06:48;102882.09;;;14.28;57.32
58245;BME280;44550;43.864;25.986;2022-10-17T17:10:48;102884.56;;;14.22;58.37
58245;BME280;44550;43.864;25.986;2022-10-17T17:14:47;102878.25;;;14.15;58.59
58245;BME280;44550;43.864;25.986;2022-10-17T17:18:53;102889.09;;;13.94;59.12
58245;BME280;44550;43.864;25.986;2022-10-17T17:22:53;102889.81;;;13.89;59.26
58245;BME280;44550;43.864;25.986;2022-10-17T17:26:54;102894.22;;;13.90;59.61
58245;BME280;44550;43.864;25.986;2022-10-17T17:30:54;102884.88;;;13.69;60.40
58245;BME280;44550;43.864;25.986;2022-10-17T17:34:56;102880.53;;;13.39;60.98
58245;BME280;44550;43.864;25.986;2022-10-17T17:38:57;102893.09;;;13.50;61.35
58245;BME280;44550;43.864;25.986;2022-10-17T17:42:57;102887.13;;;13.25;61.58
58245;BME280;44550;43.864;25.986;2022-10-17T17:47:02;102875.66;;;12.96;62.25
58245;BME280;44550;43.864;25.986;2022-10-17T17:51:05;102888.09;;;12.75;63.10
58245;BME280;44550;43.864;25.986;2022-10-17T17:55:08;102890.72;;;12.48;64.09
58245;BME280;44550;43.864;25.986;2022-10-17T17:59:10;102893.09;;;12.40;64.23
58245;BME280;44550;43.864;25.986;2022-10-17T18:03:12;102893.44;;;12.51;64.25
58245;BME280;44550;43.864;25.986;2022-10-17T18:07:14;102895.50;;;12.59;64.00
58245;BME280;44550;43.864;25.986;2022-10-17T18:11:13;102901.94;;;12.69;63.43
58245;BME280;44550;43.864;25.986;2022-10-17T18:15:18;102906.97;;;12.90;62.67
58245;BME280;44550;43.864;25.986;2022-10-17T18:19:17;102903.94;;;13.32;61.09
58245;BME280;44550;43.864;25.986;2022-10-17T18:23:22;102909.81;;;13.52;60.07
58245;BME280;44550;43.864;25.986;2022-10-17T18:27:22;102871.97;;;13.47;59.48
58245;BME280;44550;43.864;25.986;2022-10-17T18:31:22;102906.13;;;13.77;58.87
58245;BME280;44550;43.864;25.986;2022-10-17T18:35:24;102903.06;;;13.61;59.06
58245;BME280;44550;43.864;25.986;2022-10-17T18:39:26;102905.22;;;13.45;59.36
58245;BME280;44550;43.864;25.986;2022-10-17T18:43:26;102871.03;;;13.16;59.76
58245;BME280;44550;43.864;25.986;2022-10-17T18:47:26;102894.91;;;13.24;59.70
58245;BME280;44550;43.864;25.986;2022-10-17T18:51:26;102909.06;;;13.27;59.89
58245;BME280;44550;43.864;25.986;2022-10-17T18:55:27;102907.66;;;13.38;59.61
58245;BME280;44550;43.864;25.986;2022-10-17T18:59:28;102906.25;;;13.23;59.81
58245;BME280;44550;43.864;25.986;2022-10-17T19:03:27;102917.34;;;13.12;59.74
58245;BME280;44550;43.864;25.986;2022-10-17T19:07:27;102905.06;;;13.11;59.68
58245;BME280;44550;43.864;25.986;2022-10-17T19:11:31;102925.88;;;13.05;60.28
58245;BME280;44550;43.864;25.986;2022-10-17T19:15:31;102918.22;;;13.13;60.12
58245;BME280;44550;43.864;25.986;2022-10-17T19:19:31;102930.66;;;13.19;59.68
58245;BME280;44550;43.864;25.986;2022-10-17T19:23:31;102913.63;;;13.06;59.64
58245;BME280;44550;43.864;25.986;2022-10-17T19:27:34;102922.78;;;13.19;59.15
58245;BME280;44550;43.864;25.986;2022-10-17T19:31:34;102927.97;;;13.17;59.29
58245;BME280;44550;43.864;25.986;2022-10-17T19:35:34;102904.22;;;13.14;59.14
58245;BME280;44550;43.864;25.986;2022-10-17T19:39:33;102924.13;;;13.33;58.90
58245;BME280;44550;43.864;25.986;2022-10-17T19:43:37;102934.09;;;13.17;59.27
58245;BME280;44550;43.864;25.986;2022-10-17T19:47:36;102921.09;;;12.93;59.98
58245;BME280;44550;43.864;25.986;2022-10-17T19:51:36;102895.25;;;12.52;61.05
58245;BME280;44550;43.864;25.986;2022-10-17T19:55:36;102931.72;;;12.44;61.81
58245;BME280;44550;43.864;25.986;2022-10-17T19:59:38;102934.41;;;12.21;62.61
58245;BME280;44550;43.864;25.986;2022-10-17T20:03:37;102929.53;;;12.07;63.00
58245;BME280;44550;43.864;25.986;2022-10-17T20:07:37;102941.44;;;11.97;63.70
58245;BME280;44550;43.864;25.986;2022-10-17T20:11:37;102946.06;;;11.82;64.68
58245;BME280;44550;43.864;25.986;2022-10-17T20:15:38;102938.28;;;11.61;65.00
58245;BME280;44550;43.864;25.986;2022-10-17T20:19:38;102941.78;;;11.37;65.93
58245;BME280;44550;43.864;25.986;2022-10-17T20:23:38;102944.78;;;11.25;66.46
58245;BME280;44550;43.864;25.986;2022-10-17T20:27:38;102936.59;;;11.16;66.40
58245;BME280;44550;43.864;25.986;2022-10-17T20:31:41;102942.63;;;11.15;65.97
58245;BME280;44550;43.864;25.986;2022-10-17T20:35:41;102935.78;;;11.19;66.19
58245;BME280;44550;43.864;25.986;2022-10-17T20:39:46;102933.25;;;11.20;66.65
58245;BME280;44550;43.864;25.986;2022-10-17T20:44:03;102880.50;;;10.89;66.57
58245;BME280;44550;43.864;25.986;2022-10-17T20:48:06;102924.78;;;11.05;66.75
58245;BME280;44550;43.864;25.986;2022-10-17T20:52:06;102926.34;;;10.79;68.00
58245;BME280;44550;43.864;25.986;2022-10-17T20:56:07;102925.03;;;10.47;68.52
58245;BME280;44550;43.864;25.986;2022-10-17T21:00:08;102928.59;;;10.70;68.02
58245;BME280;44550;43.864;25.986;2022-10-17T21:04:10;102921.16;;;11.01;67.54
58245;BME280;44550;43.864;25.986;2022-10-17T21:08:30;102920.28;;;11.23;66.51
58245;BME280;44550;43.864;25.986;2022-10-17T21:12:30;102921.31;;;10.84;67.55